sensor_id;sensor_type;location;lat;lon;timestamp;pressure;altitude;pressure_sealevel;temperature;humidity
11314;BME280;5712;48.858;9.206;2023-07-24T00:01:45;97475.06;;;17.27;100.00
11314;BME280;5712;48.858;9.206;2023-07-24T00:04:14;97471.72;;;17.33;100.00
11314;BME280;5712;48.858;9.206;2023-07-24T00:06:43;97505.59;;;17.25;100.00
11314;BME280;5712;48.858;9.206;2023-07-24T00:09:09;97500.72;;;17.20;100.00
11314;BME280;5712;48.858;9.206;2023-07-24T00:11:37;97468.34;;;17.23;100.00
11314;BME280;5712;48.858;9.206;2023-07-24T00:14:04;97447.31;;;17.20;100.00
11314;BME280;5712;48.858;9.206;2023-07-24T00:16:32;97435.28;;;17.16;100.00
11314;BME280;5712;48.858;9.206;2023-07-24T00:18:59;97451.81;;;17.20;100.00
11314;BME280;5712;48.858;9.206;2023-07-24T00:21:25;97468.16;;;17.17;100.00
11314;BME280;5712;48.858;9.206;2023-07-24T00:23:51;97463.66;;;17.17;100.00
11314;BME280;5712;48.858;9.206;2023-07-24T00:26:18;97447.31;;;17.20;100.00
11314;BME280;5712;48.858;9.206;2023-07-24T00:28:46;97439.78;;;17.16;100.00
11314;BME280;5712;48.858;9.206;2023-07-24T00:31:12;97427.94;;;17.10;100.00
11314;BME280;5712;48.858;9.206;2023-07-24T00:33:39;97423.25;;;17.04;100.00
11314;BME280;5712;48.858;9.206;2023-07-24T00:36:05;97427.56;;;16.97;100.00
11314;BME280;5712;48.858;9.206;2023-07-24T00:38:32;97419.19;;;16.84;100.00
11314;BME280;5712;48.858;9.206;2023-07-24T00:40:58;97415.31;;;16.79;100.00
11314;BME280;5712;48.858;9.206;2023-07-24T00:43:25;97415.47;;;16.77;100.00
11314;BME280;5712;48.858;9.206;2023-07-24T00:45:56;97407.16;;;16.80;100.00
11314;BME280;5712;48.858;9.206;2023-07-24T00:48:23;97404.97;;;16.76;100.00
11314;BME280;5712;48.858;9.206;2023-07-24T00:50:50;97406.66;;;16.77;100.00
11314;BME280;5712;48.858;9.206;2023-07-24T00:53:17;97399.66;;;16.76;100.00
11314;BME280;5712;48.858;9.206;2023-07-24T00:55:47;97392.47;;;16.76;100.00
11314;BME280;5712;48.858;9.206;2023-07-24T00:58:16;97388.97;;;16.76;100.00
11314;BME280;5712;48.858;9.206;2023-07-24T01:00:42;97385.09;;;16.70;100.00
11314;BME280;5712;48.858;9.206;2023-07-24T01:03:10;97382.94;;;16.66;100.00
11314;BME280;5712;48.858;9.206;2023-07-24T01:05:38;97376.22;;;16.62;100.00
11314;BME280;5712;48.858;9.206;2023-07-24T01:08:05;97376.88;;;16.56;100.00
11314;BME280;5712;48.858;9.206;2023-07-24T01:10:32;97361.34;;;16.51;100.00
11314;BME280;5712;48.858;9.206;2023-07-24T01:13:01;97370.66;;;16.47;100.00
11314;BME280;5712;48.858;9.206;2023-07-24T01:15:32;97360.34;;;16.44;100.00
11314;BME280;5712;48.858;9.206;2023-07-24T01:18:00;97357.97;;;16.41;100.00
11314;BME280;5712;48.858;9.206;2023-07-24T01:20:29;97351.16;;;16.39;100.00
11314;BME280;5712;48.858;9.206;2023-07-24T01:23:14;97346.94;;;16.36;100.00
11314;BME280;5712;48.858;9.206;2023-07-24T01:25:53;97348.91;;;16.34;100.00
11314;BME280;5712;48.858;9.206;2023-07-24T01:28:20;97340.75;;;16.36;100.00
11314;BME280;5712;48.858;9.206;2023-07-24T01:30:46;97337.25;;;16.35;100.00
11314;BME280;5712;48.858;9.206;2023-07-24T01:33:13;97339.09;;;16.35;100.00
11314;BME280;5712;48.858;9.206;2023-07-24T01:35:40;97340.59;;;16.37;100.00
11314;BME280;5712;48.858;9.206;2023-07-24T01:38:09;97333.59;;;16.36;100.00
11314;BME280;5712;48.858;9.206;2023-07-24T01:40:35;97346.78;;;16.38;100.00
11314;BME280;5712;48.858;9.206;2023-07-24T01:43:04;97339.63;;;16.38;100.00
11314;BME280;5712;48.858;9.206;2023-07-24T01:45:30;97342.31;;;16.38;100.00
11314;BME280;5712;48.858;9.206;2023-07-24T01:47:57;97340.59;;;16.37;100.00
11314;BME280;5712;48.858;9.206;2023-07-24T01:50:23;97344.28;;;16.36;100.00
11314;BME280;5712;48.858;9.206;2023-07-24T01:52:50;97351.28;;;16.37;100.00
11314;BME280;5712;48.858;9.206;2023-07-24T01:55:17;97344.97;;;16.38;100.00
11314;BME280;5712;48.858;9.206;2023-07-24T01:57:43;97348.63;;;16.37;100.00
11314;BME280;5712;48.858;9.206;2023-07-24T02:00:12;97343.28;;;16.37;100.00
11314;BME280;5712;48.858;9.206;2023-07-24T02:02:40;97340.91;;;16.34;100.00
11314;BME280;5712;48.858;9.206;2023-07-24T02:05:07;97351.06;;;16.31;100.00
11314;BME280;5712;48.858;9.206;2023-07-24T02:07:34;97347.41;;;16.32;100.00
11314;BME280;5712;48.858;9.206;2023-07-24T02:10:02;97345.44;;;16.34;100.00
11314;BME280;5712;48.858;9.206;2023-07-24T02:12:28;97343.44;;;16.36;100.00
11314;BME280;5712;48.858;9.206;2023-07-24T02:14:55;97348.75;;;16.36;100.00
11314;BME280;5712;48.858;9.206;2023-07-24T02:17:23;97342.59;;;16.35;100.00
11314;BME280;5712;48.858;9.206;2023-07-24T02:19:50;97339.75;;;16.37;100.00
11314;BME280;5712;48.858;9.206;2023-07-24T02:22:16;97331.31;;;16.41;100.00
11314;BME280;5712;48.858;9.206;2023-07-24T02:24:43;97330.84;;;16.46;100.00
11314;BME280;5712;48.858;9.206;2023-07-24T02:27:12;97326.69;;;16.51;100.00
11314;BME280;5712;48.858;9.206;2023-07-24T02:29:39;97337.84;;;16.55;100.00
11314;BME280;5712;48.858;9.206;2023-07-24T02:32:06;97339.38;;;16.57;100.00
11314;BME280;5712;48.858;9.206;2023-07-24T02:34:34;97347.38;;;16.57;100.00
11314;BME280;5712;48.858;9.206;2023-07-24T02:37:01;97340.38;;;16.56;100.00
11314;BME280;5712;48.858;9.206;2023-07-24T02:39:27;97342.88;;;16.58;100.00
11314;BME280;5712;48.858;9.206;2023-07-24T02:41:54;97343.41;;;16.61;100.00
11314;BME280;5712;48.858;9.206;2023-07-24T02:44:20;97341.38;;;16.63;100.00
11314;BME280;5712;48.858;9.206;2023-07-24T02:46:46;97323.06;;;16.60;100.00
11314;BME280;5712;48.858;9.206;2023-07-24T02:49:13;97325.03;;;16.58;100.00
11314;BME280;5712;48.858;9.206;2023-07-24T02:51:41;97325.22;;;16.57;100.00
11314;BME280;5712;48.858;9.206;2023-07-24T02:54:07;97319.03;;;16.56;100.00
11314;BME280;5712;48.858;9.206;2023-07-24T02:56:34;97321.69;;;16.56;100.00
11314;BME280;5712;48.858;9.206;2023-07-24T02:59:00;97306.69;;;16.55;100.00
11314;BME280;5712;48.858;9.206;2023-07-24T03:01:27;97311.34;;;16.53;100.00
11314;BME280;5712;48.858;9.206;2023-07-24T03:03:53;97311.34;;;16.53;100.00
11314;BME280;5712;48.858;9.206;2023-07-24T03:06:20;97308.66;;;16.53;100.00
11314;BME280;5712;48.858;9.206;2023-07-24T03:08:48;97300.66;;;16.53;100.00
11314;BME280;5712;48.858;9.206;2023-07-24T03:11:14;97301.00;;;16.50;100.00
11314;BME280;5712;48.858;9.206;2023-07-24T03:13:41;97293.66;;;16.44;100.00
11314;BME280;5712;48.858;9.206;2023-07-24T03:16:08;97300.50;;;16.39;100.00
11314;BME280;5712;48.858;9.206;2023-07-24T03:18:34;97303.91;;;16.31;100.00
11314;BME280;5712;48.858;9.206;2023-07-24T03:21:01;97283.03;;;16.19;100.00
11314;BME280;5712;48.858;9.206;2023-07-24T03:23:29;97284.19;;;16.16;100.00
11314;BME280;5712;48.858;9.206;2023-07-24T03:25:56;97271.84;;;16.08;100.00
11314;BME280;5712;48.858;9.206;2023-07-24T03:28:23;97277.47;;;16.04;100.00
11314;BME280;5712;48.858;9.206;2023-07-24T03:30:50;97294.78;;;16.01;100.00
11314;BME280;5712;48.858;9.206;2023-07-24T03:33:17;97315.13;;;16.02;100.00
11314;BME280;5712;48.858;9.206;2023-07-24T03:35:43;97302.97;;;16.07;100.00
11314;BME280;5712;48.858;9.206;2023-07-24T03:38:10;97300.66;;;16.12;100.00
11314;BME280;5712;48.858;9.206;2023-07-24T03:40:37;97299.66;;;16.13;100.00
11314;BME280;5712;48.858;9.206;2023-07-24T03:43:05;97292.66;;;16.12;100.00
11314;BME280;5712;48.858;9.206;2023-07-24T03:45:32;97292.81;;;16.10;100.00
11314;BME280;5712;48.858;9.206;2023-07-24T03:47:58;97275.84;;;16.12;100.00
11314;BME280;5712;48.858;9.206;2023-07-24T03:50:24;97281.84;;;16.13;100.00
11314;BME280;5712;48.858;9.206;2023-07-24T03:52:51;97291.22;;;16.17;100.00
11314;BME280;5712;48.858;9.206;2023-07-24T03:55:17;97278.06;;;16.24;100.00
11314;BME280;5712;48.858;9.206;2023-07-24T03:57:44;97285.41;;;16.30;100.00
11314;BME280;5712;48.858;9.206;2023-07-24T04:00:13;97292.31;;;16.40;100.00
11314;BME280;5712;48.858;9.206;2023-07-24T04:02:40;97291.66;;;16.46;100.00
11314;BME280;5712;48.858;9.206;2023-07-24T04:05:06;97290.19;;;16.52;100.00
11314;BME280;5712;48.858;9.206;2023-07-24T04:07:33;97288.69;;;16.57;100.00
11314;BME280;5712;48.858;9.206;2023-07-24T04:09:59;97287.72;;;16.66;100.00
11314;BME280;5712;48.858;9.206;2023-07-24T04:12:26;97290.72;;;16.71;100.00
11314;BME280;5712;48.858;9.206;2023-07-24T04:14:52;97293.41;;;16.79;100.00
11314;BME280;5712;48.858;9.206;2023-07-24T04:17:20;97282.06;;;16.85;100.00
11314;BME280;5712;48.858;9.206;2023-07-24T04:19:47;97269.06;;;16.90;100.00
11314;BME280;5712;48.858;9.206;2023-07-24T04:22:13;97272.41;;;17.00;100.00
11314;BME280;5712;48.858;9.206;2023-07-24T04:24:40;97265.38;;;17.07;100.00
11314;BME280;5712;48.858;9.206;2023-07-24T04:27:06;97265.06;;;17.10;100.00
11314;BME280;5712;48.858;9.206;2023-07-24T04:29:33;97256.56;;;17.15;100.00
11314;BME280;5712;48.858;9.206;2023-07-24T04:31:59;97258.22;;;17.16;100.00
11314;BME280;5712;48.858;9.206;2023-07-24T04:34:27;97257.69;;;17.20;100.00
11314;BME280;5712;48.858;9.206;2023-07-24T04:36:54;97249.38;;;17.23;100.00
11314;BME280;5712;48.858;9.206;2023-07-24T04:39:20;97239.03;;;17.28;100.00
11314;BME280;5712;48.858;9.206;2023-07-24T04:41:47;97240.16;;;17.34;100.00
11314;BME280;5712;48.858;9.206;2023-07-24T04:44:13;97244.06;;;17.39;100.00
11314;BME280;5712;48.858;9.206;2023-07-24T04:46:40;97253.38;;;17.51;100.00
11314;BME280;5712;48.858;9.206;2023-07-24T04:49:06;97247.00;;;17.60;100.00
11314;BME280;5712;48.858;9.206;2023-07-24T04:51:34;97233.97;;;17.65;100.00
11314;BME280;5712;48.858;9.206;2023-07-24T04:54:00;97239.44;;;17.72;100.00
11314;BME280;5712;48.858;9.206;2023-07-24T04:56:27;97235.44;;;17.76;100.00
11314;BME280;5712;48.858;9.206;2023-07-24T04:58:53;97239.94;;;17.75;100.00
11314;BME280;5712;48.858;9.206;2023-07-24T05:01:20;97246.81;;;17.70;100.00
11314;BME280;5712;48.858;9.206;2023-07-24T05:03:46;97239.31;;;17.65;100.00
11314;BME280;5712;48.858;9.206;2023-07-24T05:06:13;97228.63;;;17.65;100.00
11314;BME280;5712;48.858;9.206;2023-07-24T05:08:40;97222.94;;;17.68;100.00
11314;BME280;5712;48.858;9.206;2023-07-24T05:11:07;97222.59;;;17.71;100.00
11314;BME280;5712;48.858;9.206;2023-07-24T05:13:33;97224.75;;;17.76;100.00
11314;BME280;5712;48.858;9.206;2023-07-24T05:16:00;97234.22;;;17.86;100.00
11314;BME280;5712;48.858;9.206;2023-07-24T05:18:26;97226.84;;;17.96;100.00
11314;BME280;5712;48.858;9.206;2023-07-24T05:20:53;97231.13;;;18.05;100.00
11314;BME280;5712;48.858;9.206;2023-07-24T05:23:19;97234.44;;;18.15;100.00
11314;BME280;5712;48.858;9.206;2023-07-24T05:25:47;97230.22;;;18.21;100.00
11314;BME280;5712;48.858;9.206;2023-07-24T05:28:13;97222.34;;;18.27;100.00
11314;BME280;5712;48.858;9.206;2023-07-24T05:30:40;97233.22;;;18.34;100.00
11314;BME280;5712;48.858;9.206;2023-07-24T05:33:06;97239.22;;;18.36;100.00
11314;BME280;5712;48.858;9.206;2023-07-24T05:35:33;97259.44;;;18.38;100.00
11314;BME280;5712;48.858;9.206;2023-07-24T05:37:59;97263.41;;;18.42;100.00
11314;BME280;5712;48.858;9.206;2023-07-24T05:40:29;97267.78;;;18.43;100.00
11314;BME280;5712;48.858;9.206;2023-07-24T05:43:00;97271.09;;;18.45;100.00
11314;BME280;5712;48.858;9.206;2023-07-24T05:45:26;97277.78;;;18.49;100.00
11314;BME280;5712;48.858;9.206;2023-07-24T05:47:53;97281.13;;;18.51;100.00
11314;BME280;5712;48.858;9.206;2023-07-24T05:50:19;97270.25;;;18.53;100.00
11314;BME280;5712;48.858;9.206;2023-07-24T05:52:46;97287.97;;;18.54;100.00
11314;BME280;5712;48.858;9.206;2023-07-24T05:55:12;97293.13;;;18.55;100.00
11314;BME280;5712;48.858;9.206;2023-07-24T05:57:39;97282.91;;;18.59;100.00
11314;BME280;5712;48.858;9.206;2023-07-24T06:00:07;97287.56;;;18.65;100.00
11314;BME280;5712;48.858;9.206;2023-07-24T06:02:34;97284.03;;;18.64;100.00
11314;BME280;5712;48.858;9.206;2023-07-24T06:05:00;97287.19;;;18.68;100.00
11314;BME280;5712;48.858;9.206;2023-07-24T06:07:27;97291.03;;;18.73;100.00
11314;BME280;5712;48.858;9.206;2023-07-24T06:09:53;97279.63;;;18.79;100.00
11314;BME280;5712;48.858;9.206;2023-07-24T06:12:20;97288.41;;;18.88;100.00
11314;BME280;5712;48.858;9.206;2023-07-24T06:14:46;97276.97;;;18.94;100.00
11314;BME280;5712;48.858;9.206;2023-07-24T06:17:14;97266.41;;;19.00;100.00
11314;BME280;5712;48.858;9.206;2023-07-24T06:19:41;97260.31;;;19.06;100.00
11314;BME280;5712;48.858;9.206;2023-07-24T06:22:07;97270.31;;;19.12;100.00
11314;BME280;5712;48.858;9.206;2023-07-24T06:24:34;97264.59;;;19.15;100.00
11314;BME280;5712;48.858;9.206;2023-07-24T06:27:00;97267.25;;;19.23;100.00
11314;BME280;5712;48.858;9.206;2023-07-24T06:29:27;97259.31;;;19.30;98.05
11314;BME280;5712;48.858;9.206;2023-07-24T06:31:53;97248.06;;;19.34;97.64
11314;BME280;5712;48.858;9.206;2023-07-24T06:34:21;97247.34;;;19.40;97.77
11314;BME280;5712;48.858;9.206;2023-07-24T06:36:48;97247.44;;;19.47;97.41
11314;BME280;5712;48.858;9.206;2023-07-24T06:39:14;97238.50;;;19.54;97.51
11314;BME280;5712;48.858;9.206;2023-07-24T06:41:41;97251.16;;;19.60;97.58
11314;BME280;5712;48.858;9.206;2023-07-24T06:44:08;97238.69;;;19.67;97.67
11314;BME280;5712;48.858;9.206;2023-07-24T06:46:34;97233.78;;;19.71;97.83
11314;BME280;5712;48.858;9.206;2023-07-24T06:49:01;97231.22;;;19.77;97.59
11314;BME280;5712;48.858;9.206;2023-07-24T06:51:28;97222.44;;;19.83;97.55
11314;BME280;5712;48.858;9.206;2023-07-24T06:53:55;97226.03;;;19.90;95.43
11314;BME280;5712;48.858;9.206;2023-07-24T06:56:21;97227.97;;;19.96;95.45
11314;BME280;5712;48.858;9.206;2023-07-24T06:58:48;97232.22;;;20.05;95.06
11314;BME280;5712;48.858;9.206;2023-07-24T07:01:14;97228.19;;;20.09;95.29
11314;BME280;5712;48.858;9.206;2023-07-24T07:03:41;97225.38;;;20.17;94.00
11314;BME280;5712;48.858;9.206;2023-07-24T07:06:07;97205.56;;;20.18;92.74
11314;BME280;5712;48.858;9.206;2023-07-24T07:08:36;97199.84;;;20.21;92.28
11314;BME280;5712;48.858;9.206;2023-07-24T07:11:03;97193.06;;;20.25;92.03
11314;BME280;5712;48.858;9.206;2023-07-24T07:13:32;97214.00;;;20.30;92.78
11314;BME280;5712;48.858;9.206;2023-07-24T07:15:59;97215.72;;;20.37;93.02
11314;BME280;5712;48.858;9.206;2023-07-24T07:18:25;97220.31;;;20.43;92.12
11314;BME280;5712;48.858;9.206;2023-07-24T07:20:53;97233.00;;;20.49;92.22
11314;BME280;5712;48.858;9.206;2023-07-24T07:23:20;97246.06;;;20.52;93.46
11314;BME280;5712;48.858;9.206;2023-07-24T07:25:48;97261.31;;;20.52;94.74
11314;BME280;5712;48.858;9.206;2023-07-24T07:28:16;97263.53;;;20.48;94.73
11314;BME280;5712;48.858;9.206;2023-07-24T07:30:43;97253.84;;;20.47;93.47
11314;BME280;5712;48.858;9.206;2023-07-24T07:33:09;97258.09;;;20.56;90.81
11314;BME280;5712;48.858;9.206;2023-07-24T07:35:36;97264.84;;;20.52;90.69
11314;BME280;5712;48.858;9.206;2023-07-24T07:38:03;97263.63;;;20.55;92.01
11314;BME280;5712;48.858;9.206;2023-07-24T07:40:30;97267.97;;;20.56;92.06
11314;BME280;5712;48.858;9.206;2023-07-24T07:42:58;97270.09;;;20.60;91.71
11314;BME280;5712;48.858;9.206;2023-07-24T07:45:24;97266.47;;;20.68;90.35
11314;BME280;5712;48.858;9.206;2023-07-24T07:47:50;97276.81;;;20.71;87.81
11314;BME280;5712;48.858;9.206;2023-07-24T07:50:18;97280.97;;;20.73;86.99
11314;BME280;5712;48.858;9.206;2023-07-24T07:52:45;97297.75;;;20.75;86.97
11314;BME280;5712;48.858;9.206;2023-07-24T07:55:11;97291.72;;;20.73;85.68
11314;BME280;5712;48.858;9.206;2023-07-24T07:57:39;97292.75;;;20.72;85.88
11314;BME280;5712;48.858;9.206;2023-07-24T08:00:07;97305.16;;;20.73;85.59
11314;BME280;5712;48.858;9.206;2023-07-24T08:02:34;97309.88;;;20.71;86.01
11314;BME280;5712;48.858;9.206;2023-07-24T08:05:05;97322.69;;;20.69;87.59
11314;BME280;5712;48.858;9.206;2023-07-24T08:07:32;97339.09;;;20.60;89.55
11314;BME280;5712;48.858;9.206;2023-07-24T08:09:58;97352.06;;;20.56;91.46
11314;BME280;5712;48.858;9.206;2023-07-24T08:12:25;97362.22;;;20.46;93.21
11314;BME280;5712;48.858;9.206;2023-07-24T08:14:51;97368.44;;;20.32;95.96
11314;BME280;5712;48.858;9.206;2023-07-24T08:17:19;97362.50;;;20.22;98.53
11314;BME280;5712;48.858;9.206;2023-07-24T08:19:46;97360.16;;;20.05;100.00
11314;BME280;5712;48.858;9.206;2023-07-24T08:22:12;97348.09;;;19.86;100.00
11314;BME280;5712;48.858;9.206;2023-07-24T08:24:39;97336.31;;;19.73;100.00
11314;BME280;5712;48.858;9.206;2023-07-24T08:27:05;97332.59;;;19.59;100.00
11314;BME280;5712;48.858;9.206;2023-07-24T08:29:32;97335.06;;;19.46;100.00
11314;BME280;5712;48.858;9.206;2023-07-24T08:32:01;97327.16;;;19.30;100.00
11314;BME280;5712;48.858;9.206;2023-07-24T08:34:28;97317.81;;;19.18;100.00
11314;BME280;5712;48.858;9.206;2023-07-24T08:36:55;97309.38;;;19.07;100.00
11314;BME280;5712;48.858;9.206;2023-07-24T08:39:22;97287.19;;;18.98;100.00
11314;BME280;5712;48.858;9.206;2023-07-24T08:41:48;97274.03;;;18.89;100.00
11314;BME280;5712;48.858;9.206;2023-07-24T08:44:15;97259.41;;;18.91;100.00
11314;BME280;5712;48.858;9.206;2023-07-24T08:46:42;97263.06;;;18.98;100.00
11314;BME280;5712;48.858;9.206;2023-07-24T08:49:11;97249.25;;;19.09;100.00
11314;BME280;5712;48.858;9.206;2023-07-24T08:51:40;97226.91;;;19.17;100.00
11314;BME280;5712;48.858;9.206;2023-07-24T08:54:07;97205.31;;;19.18;100.00
11314;BME280;5712;48.858;9.206;2023-07-24T08:56:36;97214.97;;;19.27;100.00
11314;BME280;5712;48.858;9.206;2023-07-24T08:59:03;97215.19;;;19.40;100.00
11314;BME280;5712;48.858;9.206;2023-07-24T09:01:29;97220.75;;;19.53;100.00
11314;BME280;5712;48.858;9.206;2023-07-24T09:03:56;97222.94;;;19.64;100.00
11314;BME280;5712;48.858;9.206;2023-07-24T09:06:22;97236.28;;;19.72;100.00
11314;BME280;5712;48.858;9.206;2023-07-24T09:08:53;97226.59;;;19.71;100.00
11314;BME280;5712;48.858;9.206;2023-07-24T09:11:20;97235.44;;;19.72;100.00
11314;BME280;5712;48.858;9.206;2023-07-24T09:13:46;97242.56;;;19.79;100.00
11314;BME280;5712;48.858;9.206;2023-07-24T09:16:21;97242.41;;;19.95;100.00
11314;BME280;5712;48.858;9.206;2023-07-24T09:18:48;97241.47;;;20.17;100.00
11314;BME280;5712;48.858;9.206;2023-07-24T09:21:27;97234.78;;;20.42;100.00
11314;BME280;5712;48.858;9.206;2023-07-24T09:23:55;97236.84;;;20.61;100.00
11314;BME280;5712;48.858;9.206;2023-07-24T09:26:22;97238.91;;;20.80;100.00
11314;BME280;5712;48.858;9.206;2023-07-24T09:28:51;97250.22;;;20.90;100.00
11314;BME280;5712;48.858;9.206;2023-07-24T09:31:18;97260.66;;;21.00;100.00
11314;BME280;5712;48.858;9.206;2023-07-24T09:33:45;97261.66;;;21.20;100.00
11314;BME280;5712;48.858;9.206;2023-07-24T09:36:11;97275.03;;;21.34;100.00
11314;BME280;5712;48.858;9.206;2023-07-24T09:38:39;97267.06;;;21.47;100.00
11314;BME280;5712;48.858;9.206;2023-07-24T09:41:07;97256.19;;;21.55;100.00
11314;BME280;5712;48.858;9.206;2023-07-24T09:43:34;97252.47;;;21.56;100.00
11314;BME280;5712;48.858;9.206;2023-07-24T09:46:04;97253.75;;;21.60;100.00
11314;BME280;5712;48.858;9.206;2023-07-24T09:48:31;97250.50;;;21.44;100.00
11314;BME280;5712;48.858;9.206;2023-07-24T09:51:00;97253.16;;;21.37;100.00
11314;BME280;5712;48.858;9.206;2023-07-24T09:53:32;97260.97;;;21.32;100.00
11314;BME280;5712;48.858;9.206;2023-07-24T09:56:01;97270.22;;;21.30;100.00
11314;BME280;5712;48.858;9.206;2023-07-24T09:58:30;97276.47;;;21.30;100.00
11314;BME280;5712;48.858;9.206;2023-07-24T10:00:58;97285.72;;;21.28;100.00
11314;BME280;5712;48.858;9.206;2023-07-24T10:03:26;97296.03;;;21.24;100.00
11314;BME280;5712;48.858;9.206;2023-07-24T10:05:53;97298.91;;;21.23;100.00
11314;BME280;5712;48.858;9.206;2023-07-24T10:08:21;97301.78;;;21.21;100.00
11314;BME280;5712;48.858;9.206;2023-07-24T10:10:48;97308.81;;;21.22;100.00
11314;BME280;5712;48.858;9.206;2023-07-24T10:13:19;97316.44;;;21.19;100.00
11314;BME280;5712;48.858;9.206;2023-07-24T10:15:48;97316.47;;;21.04;100.00
11314;BME280;5712;48.858;9.206;2023-07-24T10:18:16;97318.72;;;20.86;100.00
11314;BME280;5712;48.858;9.206;2023-07-24T10:20:43;97317.75;;;20.73;100.00
11314;BME280;5712;48.858;9.206;2023-07-24T10:23:11;97325.84;;;20.58;100.00
11314;BME280;5712;48.858;9.206;2023-07-24T10:25:44;97317.06;;;20.50;100.00
11314;BME280;5712;48.858;9.206;2023-07-24T10:28:12;97323.63;;;20.47;100.00
11314;BME280;5712;48.858;9.206;2023-07-24T10:30:42;97327.34;;;20.46;100.00
11314;BME280;5712;48.858;9.206;2023-07-24T10:33:11;97329.38;;;20.44;100.00
11314;BME280;5712;48.858;9.206;2023-07-24T10:35:43;97315.00;;;20.37;100.00
11314;BME280;5712;48.858;9.206;2023-07-24T10:38:12;97323.19;;;20.29;100.00
11314;BME280;5712;48.858;9.206;2023-07-24T10:40:39;97333.16;;;20.21;100.00
11314;BME280;5712;48.858;9.206;2023-07-24T10:43:06;97346.69;;;20.13;100.00
11314;BME280;5712;48.858;9.206;2023-07-24T10:45:46;97341.88;;;20.08;100.00
11314;BME280;5712;48.858;9.206;2023-07-24T10:48:14;97345.25;;;20.02;100.00
11314;BME280;5712;48.858;9.206;2023-07-24T10:50:42;97338.97;;;19.95;100.00
11314;BME280;5712;48.858;9.206;2023-07-24T10:53:09;97329.97;;;19.88;100.00
11314;BME280;5712;48.858;9.206;2023-07-24T10:55:36;97334.47;;;19.73;100.00
11314;BME280;5712;48.858;9.206;2023-07-24T10:58:03;97347.50;;;19.62;100.00
11314;BME280;5712;48.858;9.206;2023-07-24T11:00:30;97347.53;;;19.54;100.00
11314;BME280;5712;48.858;9.206;2023-07-24T11:02:56;97349.44;;;19.45;100.00
11314;BME280;5712;48.858;9.206;2023-07-24T11:05:24;97354.53;;;19.40;100.00
11314;BME280;5712;48.858;9.206;2023-07-24T11:07:51;97342.97;;;19.40;100.00
11314;BME280;5712;48.858;9.206;2023-07-24T11:10:19;97332.50;;;19.30;100.00
11314;BME280;5712;48.858;9.206;2023-07-24T11:12:46;97324.53;;;19.22;100.00
11314;BME280;5712;48.858;9.206;2023-07-24T11:15:13;97312.81;;;19.15;100.00
11314;BME280;5712;48.858;9.206;2023-07-24T11:17:41;97294.13;;;19.07;100.00
11314;BME280;5712;48.858;9.206;2023-07-24T11:20:09;97268.22;;;19.00;100.00
11314;BME280;5712;48.858;9.206;2023-07-24T11:22:39;97240.34;;;18.94;100.00
11314;BME280;5712;48.858;9.206;2023-07-24T11:25:07;97268.78;;;18.95;100.00
11314;BME280;5712;48.858;9.206;2023-07-24T11:27:38;97269.56;;;19.04;100.00
11314;BME280;5712;48.858;9.206;2023-07-24T11:30:05;97227.00;;;19.09;100.00
11314;BME280;5712;48.858;9.206;2023-07-24T11:32:32;97219.06;;;19.15;100.00
11314;BME280;5712;48.858;9.206;2023-07-24T11:35:00;97194.25;;;19.21;100.00
11314;BME280;5712;48.858;9.206;2023-07-24T11:37:28;97164.78;;;19.21;100.00
11314;BME280;5712;48.858;9.206;2023-07-24T11:39:57;97146.03;;;19.21;100.00
11314;BME280;5712;48.858;9.206;2023-07-24T11:42:25;97177.44;;;19.27;100.00
11314;BME280;5712;48.858;9.206;2023-07-24T11:44:52;97196.69;;;19.45;100.00
11314;BME280;5712;48.858;9.206;2023-07-24T11:47:18;97206.41;;;19.90;100.00
11314;BME280;5712;48.858;9.206;2023-07-24T11:49:56;97191.63;;;20.23;100.00
11314;BME280;5712;48.858;9.206;2023-07-24T11:52:22;97194.25;;;20.37;100.00
11314;BME280;5712;48.858;9.206;2023-07-24T11:54:57;97209.22;;;20.46;100.00
11314;BME280;5712;48.858;9.206;2023-07-24T11:57:26;97214.03;;;20.51;100.00
11314;BME280;5712;48.858;9.206;2023-07-24T11:59:53;97215.44;;;20.47;100.00
11314;BME280;5712;48.858;9.206;2023-07-24T12:02:22;97222.31;;;20.35;100.00
11314;BME280;5712;48.858;9.206;2023-07-24T12:04:54;97230.75;;;20.17;100.00
11314;BME280;5712;48.858;9.206;2023-07-24T12:07:21;97237.69;;;19.97;100.00
11314;BME280;5712;48.858;9.206;2023-07-24T12:09:50;97249.72;;;19.87;100.00
11314;BME280;5712;48.858;9.206;2023-07-24T12:12:18;97238.97;;;19.72;100.00
11314;BME280;5712;48.858;9.206;2023-07-24T12:14:45;97242.75;;;19.63;100.00
11314;BME280;5712;48.858;9.206;2023-07-24T12:17:17;97236.56;;;19.63;100.00
11314;BME280;5712;48.858;9.206;2023-07-24T12:19:45;97253.56;;;19.55;100.00
11314;BME280;5712;48.858;9.206;2023-07-24T12:22:11;97250.41;;;19.52;100.00
11314;BME280;5712;48.858;9.206;2023-07-24T12:24:38;97243.94;;;19.46;100.00
11314;BME280;5712;48.858;9.206;2023-07-24T12:27:04;97249.47;;;19.45;100.00
11314;BME280;5712;48.858;9.206;2023-07-24T12:29:32;97257.69;;;19.43;100.00
11314;BME280;5712;48.858;9.206;2023-07-24T12:31:59;97258.72;;;19.42;100.00
11314;BME280;5712;48.858;9.206;2023-07-24T12:34:25;97236.63;;;19.40;100.00
11314;BME280;5712;48.858;9.206;2023-07-24T12:36:52;97268.41;;;19.43;100.00
11314;BME280;5712;48.858;9.206;2023-07-24T12:39:19;97259.34;;;19.44;100.00
11314;BME280;5712;48.858;9.206;2023-07-24T12:41:46;97259.53;;;19.43;100.00
11314;BME280;5712;48.858;9.206;2023-07-24T12:44:12;97250.66;;;19.42;100.00
11314;BME280;5712;48.858;9.206;2023-07-24T12:46:40;97244.94;;;19.45;100.00
11314;BME280;5712;48.858;9.206;2023-07-24T12:49:07;97245.22;;;19.50;100.00
11314;BME280;5712;48.858;9.206;2023-07-24T12:51:33;97240.25;;;19.47;100.00
11314;BME280;5712;48.858;9.206;2023-07-24T12:54:00;97223.88;;;19.42;100.00
11314;BME280;5712;48.858;9.206;2023-07-24T12:56:26;97223.50;;;19.45;100.00
11314;BME280;5712;48.858;9.206;2023-07-24T12:58:53;97213.63;;;19.46;100.00
11314;BME280;5712;48.858;9.206;2023-07-24T13:01:19;97215.47;;;19.60;100.00
11314;BME280;5712;48.858;9.206;2023-07-24T13:03:47;97197.44;;;19.68;100.00